createdAt,value
2022-08-05T04:08:46.206Z,23.18
2022-08-05T04:11:52.596Z,23.18
2022-08-05T04:14:57.580Z,22.67
2022-08-05T04:18:03.971Z,22.72
2022-08-05T04:21:10.887Z,22.79
2022-08-05T04:24:18.839Z,22.77
2022-08-05T04:27:41.925Z,22.84
2022-08-05T04:30:48.130Z,22.98
2022-08-05T04:34:17.375Z,22.95
2022-08-05T04:37:12.777Z,23.05
2022-08-05T04:40:14.993Z,23.14
2022-08-05T04:43:22.220Z,23.20
2022-08-05T04:46:28.473Z,23.26
2022-08-05T04:49:39.301Z,23.33
2022-08-05T04:52:53.081Z,23.45
2022-08-05T04:56:14.429Z,23.51
2022-08-05T04:59:24.215Z,23.54
2022-08-05T05:02:41.893Z,23.63
2022-08-05T05:06:40.280Z,23.75
2022-08-05T05:09:07.777Z,23.85
2022-08-05T05:12:09.875Z,23.96
2022-08-05T05:15:13.969Z,24.10
2022-08-05T05:18:28.001Z,24.17
2022-08-05T05:21:33.293Z,24.22
2022-08-05T05:24:56.421Z,24.38
2022-08-05T05:27:57.874Z,24.58
2022-08-05T05:30:59.974Z,24.72
2022-08-05T05:34:02.997Z,24.94
2022-08-05T05:37:05.103Z,25.10
2022-08-05T05:40:08.781Z,25.25
2022-08-05T05:43:13.759Z,25.40
2022-08-05T05:46:18.935Z,25.52
2022-08-05T05:49:22.616Z,25.64
2022-08-05T05:52:30.048Z,25.75
2022-08-05T05:55:52.311Z,25.89
2022-08-05T05:58:57.650Z,26.02
2022-08-05T06:02:05.721Z,26.15
2022-08-05T06:05:16.977Z,26.31
2022-08-05T06:08:32.321Z,26.37
2022-08-05T06:11:35.719Z,26.46
2022-08-05T06:14:44.727Z,26.59
2022-08-05T06:17:52.800Z,26.73
2022-08-05T06:20:56.244Z,26.81
2022-08-05T06:23:59.666Z,26.85
2022-08-05T06:27:04.271Z,26.94
2022-08-05T06:30:17.994Z,26.99
2022-08-05T06:33:33.417Z,27.13
2022-08-05T06:36:57.293Z,27.10
2022-08-05T06:40:00.663Z,27.23
2022-08-05T06:43:04.839Z,27.26
2022-08-05T06:46:07.531Z,27.40
2022-08-05T06:49:09.938Z,27.43
2022-08-05T06:52:36.908Z,27.48
2022-08-05T06:55:37.034Z,27.60
2022-08-05T06:58:39.501Z,27.58
2022-08-05T07:01:42.553Z,27.69
2022-08-05T07:04:44.664Z,27.71
2022-08-05T07:07:48.997Z,27.76
2022-08-05T07:10:53.263Z,27.80
2022-08-05T07:14:15.607Z,27.83
2022-08-05T07:18:02.048Z,27.89
2022-08-05T07:20:45.211Z,27.98
2022-08-05T07:23:49.995Z,28.04
2022-08-05T07:26:54.644Z,28.08
2022-08-05T07:30:27.436Z,28.16
2022-08-05T07:33:21.435Z,28.25
2022-08-05T07:36:39.430Z,28.28
2022-08-05T07:40:26.992Z,28.36
2022-08-05T07:43:04.919Z,28.44
2022-08-05T07:46:24.494Z,28.56
2022-08-05T07:49:27.681Z,28.62
2022-08-05T07:52:30.436Z,28.62
2022-08-05T07:56:05.141Z,28.75
2022-08-05T07:58:58.763Z,28.76
2022-08-05T08:02:02.361Z,28.84
2022-08-05T08:05:06.473Z,28.86
2022-08-05T08:08:12.603Z,28.88
2022-08-05T08:11:17.724Z,28.96
2022-08-05T08:14:29.901Z,29.06
2022-08-05T08:17:33.052Z,29.05
2022-08-05T08:20:44.659Z,29.13
2022-08-05T08:24:04.975Z,29.19
2022-08-05T08:27:08.499Z,29.17
2022-08-05T08:30:27.663Z,29.14
2022-08-05T08:33:37.448Z,29.26
2022-08-05T08:36:48.882Z,29.21
2022-08-05T08:39:57.078Z,29.24
2022-08-05T08:45:04.479Z,29.34
2022-08-05T08:46:24.266Z,29.37
2022-08-05T08:50:14.493Z,29.53
2022-08-05T08:52:56.746Z,29.56
2022-08-05T08:56:03.511Z,29.57
2022-08-05T08:59:19.500Z,29.65
2022-08-05T09:02:26.555Z,29.73
2022-08-05T09:05:38.406Z,29.84
2022-08-05T09:08:41.578Z,29.79
2022-08-05T09:11:51.111Z,29.83
2022-08-05T09:15:03.964Z,29.91
2022-08-05T09:18:10.103Z,29.92
2022-08-05T09:21:20.777Z,30.07
2022-08-05T09:24:24.177Z,30.13
2022-08-05T09:28:04.420Z,30.29
2022-08-05T09:31:22.060Z,30.23
2022-08-05T09:34:46.481Z,30.27
2022-08-05T09:38:17.389Z,30.30
2022-08-05T09:41:16.049Z,30.27
2022-08-05T09:44:36.588Z,30.29
2022-08-05T09:47:55.457Z,30.28
2022-08-05T09:50:59.844Z,30.36
2022-08-05T09:54:06.796Z,30.42
2022-08-05T09:57:20.640Z,30.48
2022-08-05T10:00:26.426Z,30.63
2022-08-05T10:03:56.882Z,30.55
2022-08-05T10:06:59.341Z,30.66
2022-08-05T10:10:15.573Z,30.67
2022-08-05T10:13:43.969Z,30.67
2022-08-05T10:16:53.209Z,30.64
2022-08-05T10:20:03.718Z,30.69
2022-08-05T10:23:34.321Z,30.83
2022-08-05T10:26:37.257Z,30.87
2022-08-05T10:30:06.719Z,30.90
2022-08-05T10:33:17.550Z,30.92
2022-08-05T10:36:23.648Z,30.97
2022-08-05T10:40:03.137Z,31.05
2022-08-05T10:43:02.544Z,31.03
2022-08-05T10:46:09.513Z,31.19
2022-08-05T10:49:16.849Z,31.20
2022-08-05T10:52:37.880Z,31.25
2022-08-05T10:56:21.215Z,31.20
2022-08-05T11:00:03.257Z,31.31
2022-08-05T11:03:23.497Z,31.22
2022-08-05T11:06:31.180Z,31.20
2022-08-05T11:09:46.355Z,31.30
2022-08-05T11:12:54.467Z,31.28
2022-08-05T11:16:22.005Z,31.28
2022-08-05T11:20:16.840Z,31.41
2022-08-05T11:22:54.833Z,31.54
2022-08-05T11:26:11.199Z,31.50
2022-08-05T11:29:34.813Z,31.43
2022-08-05T11:32:39.294Z,31.35
2022-08-05T11:36:07.415Z,31.45
2022-08-05T11:39:13.609Z,31.37
2022-08-05T11:42:18.396Z,31.53
2022-08-05T11:46:14.507Z,31.53
2022-08-05T11:48:43.283Z,31.55
2022-08-05T11:51:49.474Z,31.65
2022-08-05T11:54:54.944Z,31.59
2022-08-05T11:58:09.532Z,31.61
2022-08-05T12:01:19.150Z,31.67
2022-08-05T12:04:22.698Z,31.77
2022-08-05T12:08:09.491Z,31.82
2022-08-05T12:11:00.304Z,31.75
2022-08-05T12:14:08.520Z,31.82
2022-08-05T12:18:02.775Z,31.81
2022-08-05T12:20:38.533Z,31.91
2022-08-05T12:23:57.424Z,31.93
2022-08-05T12:27:09.963Z,31.88
2022-08-05T12:30:23.820Z,31.92
2022-08-05T12:33:37.167Z,31.97
2022-08-05T12:36:41.822Z,32.10
2022-08-05T12:39:44.861Z,32.07
2022-08-05T12:42:53.534Z,32.06
2022-08-05T12:45:56.642Z,32.04
2022-08-05T12:49:13.238Z,32.10
2022-08-05T12:52:25.579Z,32.15
2022-08-05T12:55:32.756Z,32.13
2022-08-05T12:58:38.786Z,32.17
2022-08-05T13:02:07.615Z,32.22
2022-08-05T13:05:12.481Z,32.43
2022-08-05T13:08:19.903Z,32.21
2022-08-05T13:12:01.255Z,32.32
2022-08-05T13:14:59.181Z,32.25
2022-08-05T13:18:07.907Z,32.26
2022-08-05T13:21:10.239Z,32.38
2022-08-05T13:24:14.979Z,32.25
2022-08-05T13:27:42.964Z,32.05
2022-08-05T13:30:45.099Z,32.22
2022-08-05T13:34:22.074Z,32.21
2022-08-05T13:37:13.015Z,32.19
2022-08-05T13:40:36.959Z,32.35
2022-08-05T13:43:44.651Z,32.39
2022-08-05T13:47:02.588Z,32.33
2022-08-05T13:50:14.819Z,32.36
2022-08-05T13:53:19.106Z,32.34
2022-08-05T13:56:21.283Z,32.20
2022-08-05T13:59:24.777Z,32.24
2022-08-05T14:02:31.268Z,32.23
2022-08-05T14:06:24.820Z,32.20
2022-08-05T14:08:55.776Z,32.29
2022-08-05T14:12:17.113Z,32.38
2022-08-05T14:16:08.273Z,32.39
2022-08-05T14:18:42.358Z,32.50
2022-08-05T14:22:08.472Z,32.66
2022-08-05T14:25:21.438Z,32.64
2022-08-05T14:28:26.163Z,32.67
2022-08-05T14:32:02.333Z,32.70
2022-08-05T14:34:52.566Z,32.68
